Station info - map view · info · telemetry · weather · raw · status · beacons · messages · bulletins · browse · moving · my account
Callsign, ship name or locator: Clear       
It is possible to search using wildcards (*?) after a prefix. Example: OH*
APRS station AJ4SH - show graphs
Map loading...
Mic-E message: In service
Location: 37°11.80' N 80°16.12' W - locator EM97UE77SE - show map - static map
2.1 miles North bearing 339° from Shawsville, Montgomery County, Virginia, United States [?]
8.3 miles East bearing 106° from Blacksburg, Montgomery County, Virginia, United States
18.7 miles West bearing 254° from Roanoke, City of Roanoke, Virginia, United States
63.7 miles West bearing 257° from Lynchburg, City of Lynchburg, Virginia, United States
Last position: 2021-05-02 14:40:08 EDT (6d 13h55m ago)
2021-05-02 14:40:08 EDT local time at Shawsville, United States [?]
Altitude: 1736 ft
Course: 27°
Speed: 45 MPH
Device: Kenwood: TM-D710 (rig)
Last path: AJ4SH>S7QQ8P via K4FDS-5*,WIDE2-1,qAR,KD4BNQ-3 (good)
Positions stored: 632
Stations near current position of AJ4SH - show more
callsign distance last heard - EDT      callsign distance last heard - EDT
W4V/FC0423.7 miles 279°2021-04-23 20:23:39 RNKSVRIMA3.9 miles 173°2021-05-04 15:20:19
N4NVG-97.1 miles 93°2021-05-08 10:49:43 KJ4COQ-107.9 miles 92°2021-05-09 04:33:34
NS4NS-Y8.7 miles 245°2021-04-28 13:08:12 KK4EWT-108.7 miles 243°2021-05-08 23:35:04
KJ4KNU8.7 miles 110°2021-05-09 04:35:03 N4DJD-98.8 miles 297°2021-04-20 16:30:31
K4NNW-138.9 miles 122°2021-05-08 13:51:09 FW02689.0 miles 101°2021-05-09 04:30:18
KJ4OAP-79.0 miles 285°2021-05-05 09:24:19 EW52069.2 miles 312°2021-05-09 04:30:36
N4DJD-79.5 miles 255°2021-04-19 22:24:17 N4DJD-159.5 miles 255°2021-04-19 22:35:43
FW15849.7 miles 90°2021-05-09 04:31:31 N4DJD9.8 miles 255°2021-04-29 12:43:46
KM4KAQ B9.8 miles 306°2021-05-08 09:36:21 KM4KAQ-B9.8 miles 306°2021-05-08 09:36:31
KM4KAQ Z9.8 miles 306°2021-05-08 10:08:00 KM4KAQ-Z9.8 miles 306°2021-05-08 10:08:10
Stations which heard AJ4SH directly on radio –
callsign pkts first heard - EDT last heard longest (tx => rx) longest at - EDT
KD4CCO 1 2021-05-02 12:51:03 2021-05-02 12:51:03 EM86WP > EM86VP 2.5 miles 272° 2021-05-02 12:51:03
K4FDS-5 1 2021-05-02 14:40:08 2021-05-02 14:40:08 EM97UE > FM07AG 18.8 miles 79° 2021-05-02 14:40:08
KA4EMA-3 1 2021-05-02 08:51:56 2021-05-02 08:51:56 EM74HX > EM75IE 16.0 miles 25° 2021-05-02 08:51:56
KJ4SNT 1 2021-05-02 14:28:54 2021-05-02 14:28:54 EM97SC > EM96TX 11.0 miles 160° 2021-05-02 14:28:54
K5OLV-2 7 2021-05-02 08:28:22 2021-05-02 08:47:54 EM75DA > EM74GU 17.2 miles 132° 2021-05-02 08:31:52
N4BCX 2 2021-05-02 07:21:20 2021-05-02 07:30:03 EM64TR > EM64SS 6.2 miles 312° 2021-05-02 07:30:03
KD4BNQ-3 14 2021-05-02 14:11:47 2021-05-02 14:37:39 EM97PA > EM97RI 25.0 miles 25° 2021-05-02 14:11:47
N8DEU-7 5 2021-05-02 07:02:09 2021-05-02 07:20:40 EM64NP > EM64RR 21.7 miles 70° 2021-05-02 07:02:09
W4HBO-5 3 2021-05-02 06:56:55 2021-05-02 07:10:40 EM64PQ > EM64OM 12.6 miles 196° 2021-05-02 07:10:40
K4PLT-2 3 2021-05-02 07:08:40 2021-05-02 07:14:41 EM64OP > EM64PR 5.4 miles 28° 2021-05-02 07:08:40
KI4HDU-3 1 2021-05-02 11:19:57 2021-05-02 11:19:57 EM85EX > EM85FW 3.3 miles 121° 2021-05-02 11:19:57
N4LMC-3 2 2021-05-02 08:18:54 2021-05-02 08:21:55 EM74CV > EM74HU 23.7 miles 94° 2021-05-02 08:18:54
WT4R-1 4 2021-05-02 11:20:57 2021-05-02 11:34:47 EM85FX > EM85EW 7.2 miles 230° 2021-05-02 11:34:47
W4ZZK-11 1 2021-05-02 07:06:39 2021-05-02 07:06:39 EM64OP > EM64CQ 55.3 miles 274° 2021-05-02 07:06:39
NA4A-10 6 2021-05-02 06:42:23 2021-05-02 06:54:53 EM64NM > EM64NI 9.3 miles 181° 2021-05-02 06:54:53
KK4LTK-1 4 2021-05-02 08:16:21 2021-05-02 08:41:01 EM74CU > EM75FE 28.3 miles 33° 2021-05-02 08:16:21
AK4ZX-10 4 2021-05-02 08:46:36 2021-05-02 08:55:32 EM74GX > EM75KA 17.6 miles 82° 2021-05-02 08:46:36
N4TLM-3 6 2021-05-02 10:33:36 2021-05-02 11:08:12 EM75TR > EM85BP 28.6 miles 99° 2021-05-02 10:33:36
W4HBO-7 3 2021-05-02 07:41:12 2021-05-02 07:43:46 EM64VO > EM64SN 14.0 miles 254° 2021-05-02 07:43:46

Only position packets which were originated by the station are shown here. The range statistics show some extra long hops, because some digipeaters do not correctly add themselves to the digipeater path. Please check the raw packets.
About this site
This page shows real-time information collected from the Automatic Position Reporting System Internet network (APRS-IS). APRS is used by amateur (ham) radio operators to transmit real-time position information, weather data, telemetry and messages over the radio. A vehicle equipped with a GPS receiver, a VHF transmitter or HF transceiver and a small computer device called a tracker transmits it's location, speed and course in a small data packet, which is then received by a nearby iGate receiving site which forwards the packet on the Internet. Systems connected to the Internet can send information on the APRS-IS without a radio transmitter, or collect and display information transmitted anywhere in the world.
User guide · FAQ · Blog · Discussion group · Linking to aprs.fi · AIS sites · Service status · Database statistics · Advertising on aprs.fi · Technical details · API · Change log · Planned changes · Credits and thanks · Terms Of Service · iPhone/iPad APRS